createdAt,value
2018-03-26T00:00:52.806Z,1005.29
2018-03-26T00:01:52.918Z,1005.33
2018-03-26T00:02:52.764Z,1005.29
2018-03-26T00:03:53.729Z,1005.32
2018-03-26T00:04:53.433Z,1005.31
2018-03-26T00:05:52.770Z,1005.28
2018-03-26T00:06:52.671Z,1005.35
2018-03-26T00:07:52.716Z,1005.31
2018-03-26T00:08:52.665Z,1005.34
2018-03-26T00:09:52.599Z,1005.33
2018-03-26T00:10:52.577Z,1005.32
2018-03-26T00:11:52.555Z,1005.35
2018-03-26T00:12:52.537Z,1005.34
2018-03-26T00:13:52.513Z,1005.35
2018-03-26T00:14:52.488Z,1005.34
2018-03-26T00:15:52.462Z,1005.35
2018-03-26T00:16:52.442Z,1005.35
2018-03-26T00:17:52.417Z,1005.36
2018-03-26T00:18:52.393Z,1005.39
2018-03-26T00:19:52.372Z,1005.35
2018-03-26T00:20:52.348Z,1005.38
2018-03-26T00:21:52.332Z,1005.39
2018-03-26T00:22:52.301Z,1005.41
2018-03-26T00:23:52.287Z,1005.38
2018-03-26T00:24:52.256Z,1005.43
2018-03-26T00:25:52.265Z,1005.41
2018-03-26T00:26:52.211Z,1005.42
2018-03-26T00:27:52.185Z,1005.39
2018-03-26T00:28:52.165Z,1005.39
2018-03-26T00:29:52.141Z,1005.42
2018-03-26T00:30:52.115Z,1005.39
2018-03-26T00:31:52.095Z,1005.42
2018-03-26T00:32:52.072Z,1005.40
2018-03-26T00:33:52.048Z,1005.37
2018-03-26T00:34:52.081Z,1005.37
2018-03-26T00:35:52.002Z,1005.38
2018-03-26T00:36:51.983Z,1005.37
2018-03-26T00:37:51.954Z,1005.39
2018-03-26T00:38:51.930Z,1005.40
2018-03-26T00:39:51.914Z,1005.39
2018-03-26T00:40:51.885Z,1005.36
2018-03-26T00:41:51.864Z,1005.38
2018-03-26T00:42:51.840Z,1005.38
2018-03-26T00:43:51.819Z,1005.36
2018-03-26T00:44:51.792Z,1005.36
2018-03-26T00:45:51.776Z,1005.37
2018-03-26T00:46:51.748Z,1005.38
2018-03-26T00:47:51.732Z,1005.40
2018-03-26T00:48:51.698Z,1005.45
2018-03-26T00:49:51.681Z,1005.40
2018-03-26T00:50:51.656Z,1005.44
2018-03-26T00:51:51.630Z,1005.44
2018-03-26T00:52:51.607Z,1005.45
2018-03-26T00:53:51.586Z,1005.52
2018-03-26T00:54:51.617Z,1005.49
2018-03-26T00:55:51.540Z,1005.54
2018-03-26T00:56:51.514Z,1005.53
2018-03-26T00:57:51.493Z,1005.55
2018-03-26T00:58:51.478Z,1005.58
2018-03-26T00:59:51.444Z,1005.55
2018-03-26T01:00:51.422Z,1005.54
2018-03-26T01:01:51.397Z,1005.56
2018-03-26T01:02:51.377Z,1005.58
2018-03-26T01:03:51.354Z,1005.58
2018-03-26T01:04:51.327Z,1005.55
2018-03-26T01:05:51.360Z,1005.59
2018-03-26T01:06:51.312Z,1005.54
2018-03-26T01:07:51.264Z,1005.58
2018-03-26T01:08:51.247Z,1005.52
2018-03-26T01:09:51.212Z,1005.56
2018-03-26T01:10:51.257Z,1005.56
2018-03-26T01:11:51.169Z,1005.55
2018-03-26T01:12:51.437Z,1005.57
2018-03-26T01:13:51.145Z,1005.59
2018-03-26T01:14:51.298Z,1005.58
2018-03-26T01:15:51.074Z,1005.60
2018-03-26T01:16:51.052Z,1005.62
2018-03-26T01:17:51.027Z,1005.65
2018-03-26T01:18:51.018Z,1005.61
2018-03-26T01:19:51.000Z,1005.64
2018-03-26T01:20:50.956Z,1005.67
2018-03-26T01:21:50.935Z,1005.60
2018-03-26T01:22:50.909Z,1005.66
2018-03-26T01:23:50.886Z,1005.67
2018-03-26T01:24:51.713Z,1005.68
2018-03-26T01:25:50.841Z,1005.73
2018-03-26T01:26:50.815Z,1005.73
2018-03-26T01:27:53.482Z,1005.71
2018-03-26T01:28:50.769Z,1005.72
2018-03-26T01:29:50.745Z,1005.72
2018-03-26T01:30:50.724Z,1005.74
2018-03-26T01:31:50.698Z,1005.74
2018-03-26T01:32:50.674Z,1005.77
2018-03-26T01:33:50.650Z,1005.77
2018-03-26T01:34:50.630Z,1005.76
2018-03-26T01:35:50.605Z,1005.76
2018-03-26T01:36:50.581Z,1005.80
2018-03-26T01:37:50.560Z,1005.80
2018-03-26T01:38:50.540Z,1005.81
2018-03-26T01:39:50.620Z,1005.79
2018-03-26T01:40:50.510Z,1005.81
2018-03-26T01:41:50.469Z,1005.81
2018-03-26T01:42:50.440Z,1005.82
2018-03-26T01:43:50.417Z,1005.84
2018-03-26T01:44:50.399Z,1005.87
2018-03-26T01:45:50.369Z,1005.90
2018-03-26T01:46:50.351Z,1005.90
2018-03-26T01:47:50.327Z,1005.92
2018-03-26T01:48:50.301Z,1005.95
2018-03-26T01:49:50.277Z,1005.93
2018-03-26T01:50:50.257Z,1005.93
2018-03-26T01:51:50.702Z,1005.96
2018-03-26T01:52:50.212Z,1005.98
2018-03-26T01:53:50.185Z,1005.97
2018-03-26T01:54:50.158Z,1006.02
2018-03-26T01:55:50.138Z,1005.99
2018-03-26T01:56:50.112Z,1005.98
2018-03-26T01:57:50.088Z,1006.02
2018-03-26T01:58:50.073Z,1006.02
2018-03-26T01:59:50.049Z,1006.05
2018-03-26T02:00:50.030Z,1006.09
2018-03-26T02:01:50.005Z,1006.10
2018-03-26T02:02:49.972Z,1006.08
2018-03-26T02:03:49.949Z,1006.10
2018-03-26T02:04:49.924Z,1006.09
2018-03-26T02:05:49.900Z,1006.15
2018-03-26T02:06:49.876Z,1006.13
2018-03-26T02:07:49.856Z,1006.17
2018-03-26T02:08:49.829Z,1006.18
2018-03-26T02:09:49.807Z,1006.16
2018-03-26T02:10:49.894Z,1006.18
2018-03-26T02:11:49.761Z,1006.17
2018-03-26T02:12:49.740Z,1006.17
2018-03-26T02:13:49.722Z,1006.18
2018-03-26T02:14:49.711Z,1006.17
2018-03-26T02:15:49.664Z,1006.17
2018-03-26T02:16:49.639Z,1006.21
2018-03-26T02:17:49.617Z,1006.17
2018-03-26T02:18:49.595Z,1006.16
2018-03-26T02:19:49.571Z,1006.16
2018-03-26T02:20:49.544Z,1006.15
2018-03-26T02:21:49.522Z,1006.16
2018-03-26T02:22:49.498Z,1006.11
2018-03-26T02:23:49.481Z,1006.16
2018-03-26T02:24:49.453Z,1006.20
2018-03-26T02:25:49.428Z,1006.19
2018-03-26T02:26:49.408Z,1006.17
2018-03-26T02:27:49.389Z,1006.21
2018-03-26T02:28:49.358Z,1006.22
2018-03-26T02:29:49.335Z,1006.22
2018-03-26T02:30:49.311Z,1006.24
2018-03-26T02:31:49.286Z,1006.30
2018-03-26T02:32:49.270Z,1006.28
2018-03-26T02:33:49.239Z,1006.29
2018-03-26T02:34:49.226Z,1006.32
2018-03-26T02:35:49.200Z,1006.30
2018-03-26T02:36:49.171Z,1006.29
2018-03-26T02:37:49.145Z,1006.30
2018-03-26T02:38:49.120Z,1006.33
2018-03-26T02:39:49.145Z,1006.31
2018-03-26T02:40:49.083Z,1006.31
2018-03-26T02:41:49.077Z,1006.32
2018-03-26T02:42:49.033Z,1006.32
2018-03-26T02:43:49.001Z,1006.34
2018-03-26T02:44:48.977Z,1006.32
2018-03-26T02:45:48.959Z,1006.35
2018-03-26T02:46:49.025Z,1006.37
2018-03-26T02:47:48.904Z,1006.36
2018-03-26T02:48:48.922Z,1006.37
2018-03-26T02:49:48.863Z,1006.42
2018-03-26T02:50:48.888Z,1006.39
2018-03-26T02:51:48.812Z,1006.40
2018-03-26T02:52:48.790Z,1006.39
2018-03-26T02:53:48.766Z,1006.37
2018-03-26T02:54:48.742Z,1006.36
2018-03-26T02:55:48.717Z,1006.36
2018-03-26T02:56:48.691Z,1006.33
2018-03-26T02:57:48.671Z,1006.35
2018-03-26T02:58:48.653Z,1006.37
2018-03-26T02:59:48.622Z,1006.37
2018-03-26T03:00:48.599Z,1006.39
2018-03-26T03:01:48.573Z,1006.37
2018-03-26T03:02:48.560Z,1006.36
2018-03-26T03:03:48.526Z,1006.40
2018-03-26T03:04:48.501Z,1006.40
2018-03-26T03:05:48.480Z,1006.43
2018-03-26T03:06:48.473Z,1006.41
2018-03-26T03:07:48.435Z,1006.41
2018-03-26T03:08:48.407Z,1006.44
2018-03-26T03:09:48.391Z,1006.41
2018-03-26T03:10:48.359Z,1006.43
2018-03-26T03:11:48.469Z,1006.42
2018-03-26T03:12:48.312Z,1006.41
2018-03-26T03:13:48.288Z,1006.41
2018-03-26T03:14:48.264Z,1006.36
2018-03-26T03:15:48.290Z,1006.39
2018-03-26T03:16:48.218Z,1006.38
2018-03-26T03:17:48.200Z,1006.41
2018-03-26T03:18:48.167Z,1006.42
2018-03-26T03:19:48.178Z,1006.38
2018-03-26T03:20:48.121Z,1006.37
2018-03-26T03:21:48.098Z,1006.38
2018-03-26T03:22:48.082Z,1006.36
2018-03-26T03:23:48.669Z,1006.38
2018-03-26T03:24:48.028Z,1006.36
2018-03-26T03:25:48.003Z,1006.37
2018-03-26T03:26:47.980Z,1006.37
2018-03-26T03:27:47.954Z,1006.41
2018-03-26T03:28:47.933Z,1006.41
2018-03-26T03:29:47.914Z,1006.39
2018-03-26T03:30:47.898Z,1006.40
2018-03-26T03:31:47.860Z,1006.41
2018-03-26T03:32:47.839Z,1006.39
2018-03-26T03:33:47.816Z,1006.40
2018-03-26T03:34:47.790Z,1006.36
2018-03-26T03:35:47.764Z,1006.42
2018-03-26T03:36:47.750Z,1006.40
2018-03-26T03:37:47.719Z,1006.43
2018-03-26T03:38:47.690Z,1006.41
2018-03-26T03:39:47.680Z,1006.43
2018-03-26T03:40:47.656Z,1006.42
2018-03-26T03:41:47.621Z,1006.43
2018-03-26T03:42:47.614Z,1006.47
2018-03-26T03:43:47.620Z,1006.45
2018-03-26T03:44:47.548Z,1006.49
2018-03-26T03:45:47.524Z,1006.47
2018-03-26T03:46:47.511Z,1006.50
2018-03-26T03:47:50.020Z,1006.50
2018-03-26T03:48:47.465Z,1006.45
2018-03-26T03:49:47.435Z,1006.49
2018-03-26T03:50:47.419Z,1006.50
2018-03-26T03:51:49.041Z,1006.52
2018-03-26T03:52:47.365Z,1006.48
2018-03-26T03:53:47.334Z,1006.50
2018-03-26T03:54:47.320Z,1006.48
2018-03-26T03:55:47.291Z,1006.50
2018-03-26T03:56:47.261Z,1006.48
2018-03-26T03:57:47.252Z,1006.49
2018-03-26T03:58:47.225Z,1006.46
2018-03-26T03:59:49.033Z,1006.47
2018-03-26T04:00:47.190Z,1006.48
2018-03-26T04:01:47.142Z,1006.45
2018-03-26T04:02:47.119Z,1006.50
2018-03-26T04:03:47.102Z,1006.47
2018-03-26T04:04:47.068Z,1006.46
2018-03-26T04:05:47.055Z,1006.48
2018-03-26T04:06:47.019Z,1006.47
2018-03-26T04:07:46.995Z,1006.49
2018-03-26T04:08:46.975Z,1006.51
2018-03-26T04:09:46.950Z,1006.52
2018-03-26T04:10:46.931Z,1006.47
2018-03-26T04:11:46.899Z,1006.53
2018-03-26T04:12:46.877Z,1006.57
2018-03-26T04:13:46.853Z,1006.56
2018-03-26T04:14:46.831Z,1006.54
2018-03-26T04:15:46.811Z,1006.55
2018-03-26T04:16:46.797Z,1006.53
2018-03-26T04:17:46.756Z,1006.57
2018-03-26T04:18:46.735Z,1006.55
2018-03-26T04:19:46.710Z,1006.60
2018-03-26T04:20:46.684Z,1006.63
2018-03-26T04:21:46.662Z,1006.62
2018-03-26T04:22:46.637Z,1006.62
2018-03-26T04:23:46.611Z,1006.61
2018-03-26T04:24:46.648Z,1006.64
2018-03-26T04:25:46.571Z,1006.63
2018-03-26T04:26:46.540Z,1006.63
2018-03-26T04:27:46.514Z,1006.65
2018-03-26T04:28:46.493Z,1006.66
2018-03-26T04:29:46.468Z,1006.65
2018-03-26T04:30:46.445Z,1006.68
2018-03-26T04:31:46.420Z,1006.70
2018-03-26T04:32:46.395Z,1006.71
2018-03-26T04:33:46.369Z,1006.74
2018-03-26T04:34:46.345Z,1006.78
2018-03-26T04:35:46.322Z,1006.77
2018-03-26T04:36:46.299Z,1006.78
2018-03-26T04:37:46.274Z,1006.76
2018-03-26T04:38:46.265Z,1006.74
2018-03-26T04:39:46.323Z,1006.79
2018-03-26T04:40:46.202Z,1006.77
2018-03-26T04:41:46.195Z,1006.76
2018-03-26T04:42:46.151Z,1006.78
2018-03-26T04:43:46.127Z,1006.78
2018-03-26T04:44:46.108Z,1006.77
2018-03-26T04:45:46.081Z,1006.77
2018-03-26T04:46:46.055Z,1006.76
2018-03-26T04:47:46.032Z,1006.76
2018-03-26T04:48:46.011Z,1006.76
2018-03-26T04:49:45.984Z,1006.77
2018-03-26T04:50:45.959Z,1006.80
2018-03-26T04:51:45.937Z,1006.77
2018-03-26T04:52:45.912Z,1006.78
2018-03-26T04:53:45.890Z,1006.79
2018-03-26T04:54:45.861Z,1006.77
2018-03-26T04:55:46.660Z,1006.81
2018-03-26T04:56:45.815Z,1006.80
2018-03-26T04:57:45.789Z,1006.82
2018-03-26T04:58:45.786Z,1006.80
2018-03-26T04:59:45.743Z,1006.81
2018-03-26T05:00:45.717Z,1006.81
2018-03-26T05:01:45.744Z,1006.82
2018-03-26T05:02:45.668Z,1006.89
2018-03-26T05:03:45.647Z,1006.90
2018-03-26T05:04:45.654Z,1006.89
2018-03-26T05:05:45.596Z,1006.84
2018-03-26T05:06:45.574Z,1006.89
2018-03-26T05:07:45.547Z,1006.90
2018-03-26T05:08:45.596Z,1006.89
2018-03-26T05:09:45.502Z,1006.94
2018-03-26T05:10:45.477Z,1006.90
2018-03-26T05:11:45.451Z,1006.94
2018-03-26T05:12:45.499Z,1006.95
2018-03-26T05:13:45.445Z,1006.96
2018-03-26T05:14:45.377Z,1006.96
2018-03-26T05:15:45.354Z,1006.95
2018-03-26T05:16:45.357Z,1006.95
2018-03-26T05:17:45.369Z,1006.99
2018-03-26T05:18:45.318Z,1006.99
2018-03-26T05:19:45.278Z,1007.00
2018-03-26T05:20:45.294Z,1007.03
2018-03-26T05:21:45.208Z,1007.04
2018-03-26T05:22:45.256Z,1007.06
2018-03-26T05:23:45.176Z,1007.08
2018-03-26T05:24:45.222Z,1007.10
2018-03-26T05:25:45.175Z,1007.09
2018-03-26T05:26:45.086Z,1007.11
2018-03-26T05:27:45.087Z,1007.14
2018-03-26T05:28:45.049Z,1007.14
2018-03-26T05:29:45.011Z,1007.15
2018-03-26T05:30:44.984Z,1007.18
2018-03-26T05:31:44.961Z,1007.19
2018-03-26T05:32:44.937Z,1007.21
2018-03-26T05:33:44.916Z,1007.19
2018-03-26T05:34:44.897Z,1007.19
2018-03-26T05:35:44.863Z,1007.24
2018-03-26T05:36:44.848Z,1007.22
2018-03-26T05:37:44.817Z,1007.27
2018-03-26T05:38:44.793Z,1007.29
2018-03-26T05:39:44.770Z,1007.32
2018-03-26T05:40:44.744Z,1007.31
2018-03-26T05:41:44.739Z,1007.33
2018-03-26T05:42:44.698Z,1007.34
2018-03-26T05:43:44.669Z,1007.36
2018-03-26T05:44:44.697Z,1007.37
2018-03-26T05:45:44.620Z,1007.42
2018-03-26T05:46:44.597Z,1007.42
2018-03-26T05:47:44.575Z,1007.44
2018-03-26T05:48:44.603Z,1007.45
2018-03-26T05:49:44.523Z,1007.48
2018-03-26T05:50:44.501Z,1007.48
2018-03-26T05:51:44.487Z,1007.54
2018-03-26T05:52:46.104Z,1007.58
2018-03-26T05:53:44.467Z,1007.58
2018-03-26T05:54:44.409Z,1007.63
2018-03-26T05:55:45.200Z,1007.62
2018-03-26T05:56:44.352Z,1007.67
2018-03-26T05:57:44.329Z,1007.63
2018-03-26T05:58:44.308Z,1007.68
2018-03-26T05:59:44.278Z,1007.65
2018-03-26T06:00:44.257Z,1007.69
2018-03-26T06:01:44.231Z,1007.73
2018-03-26T06:02:44.218Z,1007.72
2018-03-26T06:03:44.180Z,1007.73
2018-03-26T06:04:44.156Z,1007.75
2018-03-26T06:05:44.131Z,1007.72
2018-03-26T06:06:44.108Z,1007.76
2018-03-26T06:07:44.084Z,1007.77
2018-03-26T06:08:44.063Z,1007.74
2018-03-26T06:09:44.061Z,1007.79
2018-03-26T06:10:44.050Z,1007.82
2018-03-26T06:11:43.985Z,1007.83
2018-03-26T06:12:43.966Z,1007.83
2018-03-26T06:13:43.939Z,1007.85
2018-03-26T06:14:43.911Z,1007.85
2018-03-26T06:15:43.892Z,1007.86
2018-03-26T06:16:43.862Z,1007.87
2018-03-26T06:17:43.838Z,1007.87
2018-03-26T06:18:43.813Z,1007.89
2018-03-26T06:19:43.789Z,1007.85
2018-03-26T06:20:43.766Z,1007.88
2018-03-26T06:21:43.739Z,1007.87
2018-03-26T06:22:43.720Z,1007.90
2018-03-26T06:23:43.691Z,1007.97
2018-03-26T06:24:43.726Z,1007.96
2018-03-26T06:25:44.023Z,1007.96
2018-03-26T06:26:43.621Z,1007.91
2018-03-26T06:27:43.594Z,1007.89
2018-03-26T06:28:43.568Z,1007.93
2018-03-26T06:29:43.549Z,1007.98
2018-03-26T06:30:43.549Z,1007.99
2018-03-26T06:31:43.494Z,1007.97
2018-03-26T06:32:43.481Z,1007.99
2018-03-26T06:33:43.446Z,1008.05
2018-03-26T06:34:43.426Z,1008.05
2018-03-26T06:35:43.394Z,1008.04
2018-03-26T06:36:43.372Z,1008.08
2018-03-26T06:37:43.384Z,1008.07
2018-03-26T06:38:43.322Z,1008.08
2018-03-26T06:39:43.300Z,1008.10
2018-03-26T06:40:43.283Z,1008.15
2018-03-26T06:41:43.250Z,1008.14
2018-03-26T06:42:43.224Z,1008.16
2018-03-26T06:43:43.198Z,1008.15
2018-03-26T06:44:43.177Z,1008.18
2018-03-26T06:45:43.157Z,1008.20
2018-03-26T06:46:43.141Z,1008.18
2018-03-26T06:47:43.104Z,1008.22
2018-03-26T06:48:43.112Z,1008.24
2018-03-26T06:49:43.055Z,1008.21
2018-03-26T06:50:43.050Z,1008.24
2018-03-26T06:51:43.031Z,1008.24
2018-03-26T06:52:42.979Z,1008.26
2018-03-26T06:53:42.956Z,1008.26
2018-03-26T06:54:42.928Z,1008.28
2018-03-26T06:55:42.907Z,1008.29
2018-03-26T06:56:42.915Z,1008.33
2018-03-26T06:57:42.857Z,1008.34
2018-03-26T06:58:42.832Z,1008.38
2018-03-26T06:59:42.821Z,1008.39
2018-03-26T07:00:42.788Z,1008.40
2018-03-26T07:01:42.768Z,1008.40
2018-03-26T07:02:42.735Z,1008.40
2018-03-26T07:03:42.710Z,1008.44
2018-03-26T07:04:42.689Z,1008.42
2018-03-26T07:05:42.663Z,1008.47
2018-03-26T07:06:42.647Z,1008.47
2018-03-26T07:07:42.714Z,1008.46
2018-03-26T07:08:42.589Z,1008.49
2018-03-26T07:09:42.564Z,1008.48
2018-03-26T07:10:42.541Z,1008.49
2018-03-26T07:11:42.518Z,1008.50
2018-03-26T07:12:42.495Z,1008.50
2018-03-26T07:13:42.471Z,1008.52
2018-03-26T07:14:42.444Z,1008.54
2018-03-26T07:15:42.416Z,1008.58
2018-03-26T07:16:42.396Z,1008.59
2018-03-26T07:17:42.366Z,1008.55
2018-03-26T07:18:42.370Z,1008.55
2018-03-26T07:19:42.326Z,1008.58
2018-03-26T07:20:42.292Z,1008.59
2018-03-26T07:21:42.299Z,1008.57
2018-03-26T07:22:42.244Z,1008.57
2018-03-26T07:23:42.224Z,1008.56
2018-03-26T07:24:42.208Z,1008.58
2018-03-26T07:25:42.178Z,1008.56
2018-03-26T07:26:42.145Z,1008.61
2018-03-26T07:27:42.177Z,1008.60
2018-03-26T07:28:42.155Z,1008.63
2018-03-26T07:29:42.090Z,1008.62
2018-03-26T07:30:42.105Z,1008.61
2018-03-26T07:31:42.034Z,1008.62
2018-03-26T07:32:42.018Z,1008.63
2018-03-26T07:33:41.985Z,1008.66
2018-03-26T07:34:41.987Z,1008.60
2018-03-26T07:35:41.927Z,1008.66
2018-03-26T07:36:41.902Z,1008.64
2018-03-26T07:37:41.920Z,1008.68
2018-03-26T07:38:41.851Z,1008.68
2018-03-26T07:39:41.842Z,1008.66
2018-03-26T07:40:41.806Z,1008.62
2018-03-26T07:41:41.778Z,1008.68
2018-03-26T07:42:41.752Z,1008.69
2018-03-26T07:43:41.729Z,1008.68
2018-03-26T07:44:41.704Z,1008.69
2018-03-26T07:45:41.687Z,1008.66
2018-03-26T07:46:41.657Z,1008.71
2018-03-26T07:47:41.631Z,1008.69
2018-03-26T07:48:41.617Z,1008.67
2018-03-26T07:49:41.584Z,1008.65
2018-03-26T07:50:41.556Z,1008.64
2018-03-26T07:51:41.533Z,1008.63
2018-03-26T07:52:41.512Z,1008.66
2018-03-26T07:53:41.483Z,1008.70
2018-03-26T07:54:41.463Z,1008.71
2018-03-26T07:55:41.436Z,1008.74
2018-03-26T07:56:41.438Z,1008.76
2018-03-26T07:57:41.989Z,1008.79
2018-03-26T07:58:41.368Z,1008.82
2018-03-26T07:59:41.337Z,1008.80
2018-03-26T08:00:41.322Z,1008.80
2018-03-26T08:01:41.289Z,1008.86
2018-03-26T08:02:41.265Z,1008.81
2018-03-26T08:03:41.243Z,1008.84
2018-03-26T08:04:41.216Z,1008.87
2018-03-26T08:05:41.192Z,1008.84
2018-03-26T08:06:41.165Z,1008.84
2018-03-26T08:07:41.257Z,1008.82
2018-03-26T08:08:41.119Z,1008.85
2018-03-26T08:09:41.179Z,1008.85
2018-03-26T08:10:41.074Z,1008.84
2018-03-26T08:11:41.048Z,1008.88
2018-03-26T08:12:41.023Z,1008.85
2018-03-26T08:13:40.997Z,1008.88
2018-03-26T08:14:40.993Z,1008.92
2018-03-26T08:15:40.954Z,1008.93
2018-03-26T08:16:40.926Z,1008.95
2018-03-26T08:17:40.901Z,1008.95
2018-03-26T08:18:40.885Z,1008.97
2018-03-26T08:19:40.854Z,1009.05
2018-03-26T08:20:40.838Z,1009.00
2018-03-26T08:21:40.811Z,1009.04
2018-03-26T08:22:40.782Z,1009.08
2018-03-26T08:23:40.760Z,1009.08
2018-03-26T08:24:40.742Z,1009.13
2018-03-26T08:25:40.714Z,1009.11
2018-03-26T08:26:40.698Z,1009.14
2018-03-26T08:27:40.668Z,1009.09
2018-03-26T08:28:40.644Z,1009.05
2018-03-26T08:29:40.624Z,1009.06
2018-03-26T08:30:40.593Z,1009.15
2018-03-26T08:31:40.572Z,1009.16
2018-03-26T08:32:40.584Z,1009.17
2018-03-26T08:33:40.524Z,1009.17
2018-03-26T08:34:40.537Z,1009.17
2018-03-26T08:35:40.525Z,1009.23
2018-03-26T08:36:40.452Z,1009.20
2018-03-26T08:37:40.452Z,1009.22
2018-03-26T08:38:40.403Z,1009.20
2018-03-26T08:39:40.385Z,1009.22
2018-03-26T08:40:40.430Z,1009.24
2018-03-26T08:41:40.395Z,1009.24
2018-03-26T08:42:40.310Z,1009.27
2018-03-26T08:43:40.289Z,1009.27
2018-03-26T08:44:40.306Z,1009.28
2018-03-26T08:45:40.241Z,1009.25
2018-03-26T08:46:40.221Z,1009.32
2018-03-26T08:47:40.197Z,1009.30
2018-03-26T08:48:40.174Z,1009.28
2018-03-26T08:49:40.455Z,1009.27
2018-03-26T08:50:40.125Z,1009.31
2018-03-26T08:51:40.105Z,1009.28
2018-03-26T08:52:40.080Z,1009.28
2018-03-26T08:53:40.066Z,1009.32
2018-03-26T08:54:40.032Z,1009.28
2018-03-26T08:55:40.100Z,1009.28
2018-03-26T08:56:39.987Z,1009.29
2018-03-26T08:57:40.495Z,1009.28
2018-03-26T08:58:39.941Z,1009.28
2018-03-26T08:59:39.915Z,1009.31
2018-03-26T09:00:39.889Z,1009.26
2018-03-26T09:01:39.874Z,1009.24
2018-03-26T09:02:39.849Z,1009.24
2018-03-26T09:03:39.821Z,1009.27
2018-03-26T09:04:39.798Z,1009.27
2018-03-26T09:05:39.832Z,1009.25
2018-03-26T09:06:39.751Z,1009.25
2018-03-26T09:07:39.731Z,1009.23
2018-03-26T09:08:39.705Z,1009.17
2018-03-26T09:09:39.682Z,1009.18
2018-03-26T09:10:39.659Z,1009.27
2018-03-26T09:11:39.633Z,1009.24
2018-03-26T09:12:39.673Z,1009.26
2018-03-26T09:13:39.589Z,1009.29
2018-03-26T09:14:39.597Z,1009.29
2018-03-26T09:15:39.543Z,1009.31
2018-03-26T09:16:39.527Z,1009.32
2018-03-26T09:17:39.493Z,1009.31
2018-03-26T09:18:39.501Z,1009.36
2018-03-26T09:19:39.471Z,1009.35
2018-03-26T09:20:39.423Z,1009.35
2018-03-26T09:21:39.407Z,1009.36
2018-03-26T09:22:39.433Z,1009.39
2018-03-26T09:23:39.355Z,1009.35
2018-03-26T09:24:39.329Z,1009.36
2018-03-26T09:25:39.313Z,1009.33
2018-03-26T09:26:39.282Z,1009.37
2018-03-26T09:27:39.262Z,1009.39
2018-03-26T09:28:39.237Z,1009.37
2018-03-26T09:29:39.214Z,1009.35
2018-03-26T09:30:39.192Z,1009.37
2018-03-26T09:31:39.169Z,1009.36
2018-03-26T09:32:39.142Z,1009.36
2018-03-26T09:33:39.117Z,1009.37
2018-03-26T09:34:39.099Z,1009.36
2018-03-26T09:35:39.072Z,1009.39
2018-03-26T09:36:39.049Z,1009.44
2018-03-26T09:37:39.028Z,1009.39
2018-03-26T09:38:39.093Z,1009.42
2018-03-26T09:39:38.978Z,1009.42
2018-03-26T09:40:38.979Z,1009.41
2018-03-26T09:41:38.932Z,1009.38
2018-03-26T09:42:38.909Z,1009.32
2018-03-26T09:43:38.889Z,1009.33
2018-03-26T09:44:38.861Z,1009.39
2018-03-26T09:45:38.839Z,1009.37
2018-03-26T09:46:38.821Z,1009.42
2018-03-26T09:47:38.843Z,1009.40
2018-03-26T09:48:38.826Z,1009.39
2018-03-26T09:49:38.789Z,1009.38
2018-03-26T09:50:38.747Z,1009.37
2018-03-26T09:51:38.710Z,1009.38
2018-03-26T09:52:38.698Z,1009.33
2018-03-26T09:53:38.653Z,1009.37
2018-03-26T09:54:38.692Z,1009.30
2018-03-26T09:55:38.636Z,1009.32
2018-03-26T09:56:38.608Z,1009.37
2018-03-26T09:57:38.574Z,1009.34
2018-03-26T09:58:38.539Z,1009.37
2018-03-26T09:59:38.514Z,1009.37
2018-03-26T10:00:38.506Z,1009.42
2018-03-26T10:01:38.480Z,1009.41
2018-03-26T10:02:38.511Z,1009.41
2018-03-26T10:03:38.419Z,1009.41
2018-03-26T10:04:38.397Z,1009.40
2018-03-26T10:05:38.381Z,1009.44
2018-03-26T10:06:38.393Z,1009.47
2018-03-26T10:07:38.376Z,1009.45
2018-03-26T10:08:38.328Z,1009.47
2018-03-26T10:09:38.300Z,1009.47
2018-03-26T10:10:38.293Z,1009.43
2018-03-26T10:11:38.236Z,1009.43
2018-03-26T10:12:38.217Z,1009.43
2018-03-26T10:13:38.191Z,1009.44
2018-03-26T10:14:38.179Z,1009.51
2018-03-26T10:15:38.150Z,1009.51
2018-03-26T10:16:38.127Z,1009.50
2018-03-26T10:17:38.164Z,1009.45
2018-03-26T10:18:38.083Z,1009.43
2018-03-26T10:19:38.081Z,1009.45
2018-03-26T10:20:38.036Z,1009.51
2018-03-26T10:21:38.056Z,1009.72
2018-03-26T10:22:38.693Z,1009.80
2018-03-26T10:23:37.972Z,1009.77
2018-03-26T10:24:37.986Z,1009.72
2018-03-26T10:25:37.928Z,1009.82
2018-03-26T10:26:38.595Z,1009.71
2018-03-26T10:27:39.641Z,1009.64
2018-03-26T10:28:37.870Z,1009.68
2018-03-26T10:29:37.842Z,1009.61
2018-03-26T10:30:38.179Z,1009.75
2018-03-26T10:31:37.801Z,1009.98
2018-03-26T10:32:37.779Z,1010.01
2018-03-26T10:33:37.802Z,1010.06
2018-03-26T10:34:37.745Z,1009.99
2018-03-26T10:35:37.724Z,1010.01
2018-03-26T10:36:37.706Z,1010.07
2018-03-26T10:37:37.717Z,1010.09
2018-03-26T10:38:37.669Z,1009.99
2018-03-26T10:39:37.653Z,1009.92
2018-03-26T10:40:37.639Z,1009.92
2018-03-26T10:41:40.126Z,1009.91
2018-03-26T10:42:38.606Z,1010.07
2018-03-26T10:43:39.139Z,1009.94
2018-03-26T10:44:37.570Z,1009.95
2018-03-26T10:45:37.553Z,1010.05
2018-03-26T10:46:37.580Z,1010.04
2018-03-26T10:47:37.598Z,1009.98
2018-03-26T10:48:38.441Z,1010.05
2018-03-26T10:49:37.548Z,1010.11
2018-03-26T10:50:37.544Z,1009.96
2018-03-26T10:51:37.561Z,1009.81
2018-03-26T10:52:37.471Z,1009.82
2018-03-26T10:53:37.452Z,1009.87
2018-03-26T10:54:37.424Z,1009.86
2018-03-26T10:55:37.424Z,1009.78
2018-03-26T10:56:39.141Z,1009.83
2018-03-26T10:57:37.397Z,1009.86
2018-03-26T10:58:37.390Z,1010.02
2018-03-26T10:59:37.367Z,1009.99
2018-03-26T11:00:37.350Z,1009.88
2018-03-26T11:01:37.345Z,1009.88
2018-03-26T11:02:37.338Z,1009.93
2018-03-26T11:03:37.313Z,1009.98
2018-03-26T11:04:37.303Z,1009.95
2018-03-26T11:05:37.298Z,1009.86
2018-03-26T11:06:37.277Z,1009.82
2018-03-26T11:07:37.266Z,1009.88
2018-03-26T11:08:37.295Z,1009.90
2018-03-26T11:09:37.243Z,1009.79
2018-03-26T11:10:37.228Z,1009.84
2018-03-26T11:11:37.234Z,1009.85
2018-03-26T11:12:37.209Z,1009.90
2018-03-26T11:13:37.246Z,1009.97
2018-03-26T11:14:37.201Z,1009.92
2018-03-26T11:15:37.180Z,1009.95
2018-03-26T11:16:37.163Z,1009.91
2018-03-26T11:17:37.149Z,1009.85
2018-03-26T11:18:37.139Z,1009.85
2018-03-26T11:19:37.126Z,1009.86
2018-03-26T11:20:37.115Z,1009.86
2018-03-26T11:21:37.111Z,1009.92
2018-03-26T11:22:37.169Z,1009.85
2018-03-26T11:23:37.084Z,1009.81
2018-03-26T11:24:37.476Z,1009.80
2018-03-26T11:25:37.069Z,1009.76
2018-03-26T11:26:37.130Z,1009.81
2018-03-26T11:27:37.045Z,1009.76
2018-03-26T11:28:37.036Z,1009.83
2018-03-26T11:29:37.027Z,1009.86
2018-03-26T11:30:37.021Z,1009.88
2018-03-26T11:31:37.004Z,1009.79
2018-03-26T11:32:36.999Z,1009.73
2018-03-26T11:33:37.007Z,1009.74
2018-03-26T11:34:36.974Z,1009.82
2018-03-26T11:35:36.999Z,1009.80
2018-03-26T11:36:36.958Z,1009.87
2018-03-26T11:37:36.949Z,1009.84
2018-03-26T11:38:36.939Z,1009.88
2018-03-26T11:39:36.936Z,1009.90
2018-03-26T11:40:36.921Z,1009.91
2018-03-26T11:41:36.910Z,1009.91
2018-03-26T11:42:36.969Z,1009.87
2018-03-26T11:43:36.893Z,1009.86
2018-03-26T11:44:36.886Z,1009.85
2018-03-26T11:45:36.879Z,1009.87
2018-03-26T11:46:36.868Z,1009.86
2018-03-26T11:47:36.860Z,1009.93
2018-03-26T11:48:36.851Z,1009.89
2018-03-26T11:49:36.898Z,1009.87
2018-03-26T11:50:36.838Z,1009.88
2018-03-26T11:51:36.831Z,1009.88
2018-03-26T11:52:36.837Z,1009.83
2018-03-26T11:53:36.815Z,1009.70
2018-03-26T11:54:36.835Z,1009.68
2018-03-26T11:55:36.820Z,1009.88
2018-03-26T11:56:36.858Z,1009.85
2018-03-26T11:57:37.331Z,1009.88
2018-03-26T11:58:36.780Z,1009.90
2018-03-26T11:59:36.771Z,1009.71
2018-03-26T12:00:36.804Z,1009.91
2018-03-26T12:01:36.753Z,1009.89
2018-03-26T12:02:36.746Z,1009.94
2018-03-26T12:03:36.740Z,1009.95
2018-03-26T12:04:36.736Z,1009.95
2018-03-26T12:05:36.723Z,1009.89